sensor_id;sensor_type;location;lat;lon;timestamp;pressure;altitude;pressure_sealevel;temperature;humidity
12475;BME280;6302;42.624;23.334;2022-12-20T00:00:01;94970.09;;;-0.43;100.00
12475;BME280;6302;42.624;23.334;2022-12-20T00:02:29;94986.00;;;-0.26;100.00
12475;BME280;6302;42.624;23.334;2022-12-20T00:04:56;94988.75;;;-0.36;100.00
12475;BME280;6302;42.624;23.334;2022-12-20T00:07:23;94986.28;;;-0.46;100.00
12475;BME280;6302;42.624;23.334;2022-12-20T00:09:50;94989.38;;;-0.44;100.00
12475;BME280;6302;42.624;23.334;2022-12-20T00:12:17;94993.53;;;-0.43;100.00
12475;BME280;6302;42.624;23.334;2022-12-20T00:14:43;94999.78;;;-0.44;100.00
12475;BME280;6302;42.624;23.334;2022-12-20T00:17:10;95008.13;;;-0.42;100.00
12475;BME280;6302;42.624;23.334;2022-12-20T00:19:42;94981.03;;;-0.60;100.00
12475;BME280;6302;42.624;23.334;2022-12-20T00:22:09;95002.13;;;-0.43;100.00
12475;BME280;6302;42.624;23.334;2022-12-20T00:24:36;95003.97;;;-0.43;100.00
12475;BME280;6302;42.624;23.334;2022-12-20T00:27:03;94996.63;;;-0.41;100.00
12475;BME280;6302;42.624;23.334;2022-12-20T00:29:29;95006.44;;;-0.33;100.00
12475;BME280;6302;42.624;23.334;2022-12-20T00:31:56;95015.28;;;-0.34;100.00
12475;BME280;6302;42.624;23.334;2022-12-20T00:34:23;94983.13;;;-0.62;100.00
12475;BME280;6302;42.624;23.334;2022-12-20T00:36:51;95005.00;;;-0.44;100.00
12475;BME280;6302;42.624;23.334;2022-12-20T00:39:18;95000.31;;;-0.42;100.00
12475;BME280;6302;42.624;23.334;2022-12-20T00:41:45;94980.66;;;-0.53;100.00
12475;BME280;6302;42.624;23.334;2022-12-20T00:44:12;94995.72;;;-0.50;100.00
12475;BME280;6302;42.624;23.334;2022-12-20T00:46:38;94990.16;;;-0.44;100.00
12475;BME280;6302;42.624;23.334;2022-12-20T00:49:05;94983.75;;;-0.51;100.00
12475;BME280;6302;42.624;23.334;2022-12-20T00:51:32;94978.00;;;-0.48;100.00
12475;BME280;6302;42.624;23.334;2022-12-20T00:54:00;94995.44;;;-0.49;100.00
12475;BME280;6302;42.624;23.334;2022-12-20T00:56:28;94974.31;;;-0.66;100.00
12475;BME280;6302;42.624;23.334;2022-12-20T00:58:57;94993.47;;;-0.57;100.00
12475;BME280;6302;42.624;23.334;2022-12-20T01:01:25;95002.50;;;-0.49;100.00
12475;BME280;6302;42.624;23.334;2022-12-20T01:03:53;95012.41;;;-0.51;100.00
12475;BME280;6302;42.624;23.334;2022-12-20T01:06:21;95008.38;;;-0.62;100.00
12475;BME280;6302;42.624;23.334;2022-12-20T01:08:48;94998.81;;;-0.67;100.00
12475;BME280;6302;42.624;23.334;2022-12-20T01:11:18;95005.00;;;-0.63;100.00
12475;BME280;6302;42.624;23.334;2022-12-20T01:13:47;95003.50;;;-0.69;100.00
12475;BME280;6302;42.624;23.334;2022-12-20T01:16:16;94997.25;;;-0.68;100.00
12475;BME280;6302;42.624;23.334;2022-12-20T01:18:44;94994.00;;;-0.79;100.00
12475;BME280;6302;42.624;23.334;2022-12-20T01:21:13;94988.25;;;-0.76;100.00
12475;BME280;6302;42.624;23.334;2022-12-20T01:23:40;94986.41;;;-0.75;100.00
12475;BME280;6302;42.624;23.334;2022-12-20T01:26:10;94983.88;;;-0.80;100.00
12475;BME280;6302;42.624;23.334;2022-12-20T01:28:40;94983.59;;;-0.79;100.00
12475;BME280;6302;42.624;23.334;2022-12-20T01:31:09;94981.03;;;-0.84;100.00
12475;BME280;6302;42.624;23.334;2022-12-20T01:33:36;94967.66;;;-0.96;100.00
12475;BME280;6302;42.624;23.334;2022-12-20T01:36:05;94939.78;;;-1.14;100.00
12475;BME280;6302;42.624;23.334;2022-12-20T01:38:33;94962.44;;;-0.96;100.00
12475;BME280;6302;42.624;23.334;2022-12-20T01:41:00;94966.13;;;-1.20;100.00
12475;BME280;6302;42.624;23.334;2022-12-20T01:43:46;94963.31;;;-1.24;100.00
12475;BME280;6302;42.624;23.334;2022-12-20T01:46:13;94963.25;;;-1.19;100.00
12475;BME280;6302;42.624;23.334;2022-12-20T01:48:41;94956.78;;;-1.21;100.00
12475;BME280;6302;42.624;23.334;2022-12-20T01:51:09;94789.34;;;-2.39;100.00
12475;BME280;6302;42.624;23.334;2022-12-20T01:53:37;94949.41;;;-1.38;100.00
12475;BME280;6302;42.624;23.334;2022-12-20T01:56:06;94948.41;;;-1.42;100.00
12475;BME280;6302;42.624;23.334;2022-12-20T01:58:35;94937.47;;;-1.39;100.00
12475;BME280;6302;42.624;23.334;2022-12-20T02:01:05;94943.16;;;-1.37;100.00
12475;BME280;6302;42.624;23.334;2022-12-20T02:03:32;94935.53;;;-1.52;100.00
12475;BME280;6302;42.624;23.334;2022-12-20T02:06:13;94936.66;;;-1.58;100.00
12475;BME280;6302;42.624;23.334;2022-12-20T02:08:41;94932.25;;;-1.63;100.00
12475;BME280;6302;42.624;23.334;2022-12-20T02:11:19;94933.03;;;-1.62;100.00
12475;BME280;6302;42.624;23.334;2022-12-20T02:13:53;94945.09;;;-1.71;100.00
12475;BME280;6302;42.624;23.334;2022-12-20T02:16:30;94918.09;;;-1.75;100.00
12475;BME280;6302;42.624;23.334;2022-12-20T02:19:20;94935.78;;;-1.77;100.00
12475;BME280;6302;42.624;23.334;2022-12-20T02:21:54;94922.72;;;-1.72;100.00
12475;BME280;6302;42.624;23.334;2022-12-20T02:24:49;94939.84;;;-1.66;100.00
12475;BME280;6302;42.624;23.334;2022-12-20T02:27:40;94938.78;;;-1.65;100.00
12475;BME280;6302;42.624;23.334;2022-12-20T02:30:15;94939.53;;;-1.65;100.00
12475;BME280;6302;42.624;23.334;2022-12-20T02:32:57;94949.91;;;-1.60;100.00
12475;BME280;6302;42.624;23.334;2022-12-20T02:35:28;94934.59;;;-1.61;100.00
12475;BME280;6302;42.624;23.334;2022-12-20T02:37:56;94946.31;;;-1.64;100.00
12475;BME280;6302;42.624;23.334;2022-12-20T02:40:27;94949.69;;;-1.63;100.00
12475;BME280;6302;42.624;23.334;2022-12-20T02:42:58;94942.66;;;-1.63;100.00
12475;BME280;6302;42.624;23.334;2022-12-20T02:45:30;94908.47;;;-1.75;100.00
12475;BME280;6302;42.624;23.334;2022-12-20T02:48:01;94930.91;;;-1.60;100.00
12475;BME280;6302;42.624;23.334;2022-12-20T02:50:31;94919.63;;;-1.74;100.00
12475;BME280;6302;42.624;23.334;2022-12-20T02:53:00;94904.47;;;-1.67;100.00
12475;BME280;6302;42.624;23.334;2022-12-20T02:55:36;94935.88;;;-1.59;100.00
12475;BME280;6302;42.624;23.334;2022-12-20T02:58:10;94927.63;;;-1.66;100.00
12475;BME280;6302;42.624;23.334;2022-12-20T03:00:42;94930.03;;;-1.74;100.00
12475;BME280;6302;42.624;23.334;2022-12-20T03:03:13;94921.63;;;-1.66;100.00
12475;BME280;6302;42.624;23.334;2022-12-20T03:05:50;94925.72;;;-1.60;100.00
12475;BME280;6302;42.624;23.334;2022-12-20T03:08:17;94925.72;;;-1.60;100.00
12475;BME280;6302;42.624;23.334;2022-12-20T03:10:45;94923.84;;;-1.55;100.00
12475;BME280;6302;42.624;23.334;2022-12-20T03:13:12;94923.84;;;-1.55;100.00
12475;BME280;6302;42.624;23.334;2022-12-20T03:15:40;94921.63;;;-1.66;100.00
12475;BME280;6302;42.624;23.334;2022-12-20T03:18:07;94925.50;;;-1.64;100.00
12475;BME280;6302;42.624;23.334;2022-12-20T03:20:34;94919.03;;;-1.66;100.00
12475;BME280;6302;42.624;23.334;2022-12-20T03:23:01;94916.44;;;-1.66;100.00
12475;BME280;6302;42.624;23.334;2022-12-20T03:25:28;94907.63;;;-1.70;100.00
12475;BME280;6302;42.624;23.334;2022-12-20T03:27:55;94914.94;;;-1.72;100.00
12475;BME280;6302;42.624;23.334;2022-12-20T03:30:22;94893.75;;;-1.84;100.00
12475;BME280;6302;42.624;23.334;2022-12-20T03:32:50;94906.09;;;-1.71;100.00
12475;BME280;6302;42.624;23.334;2022-12-20T03:35:17;94915.56;;;-1.80;100.00
12475;BME280;6302;42.624;23.334;2022-12-20T03:37:44;94909.25;;;-1.74;100.00
12475;BME280;6302;42.624;23.334;2022-12-20T03:40:11;94913.91;;;-1.71;100.00
12475;BME280;6302;42.624;23.334;2022-12-20T03:42:38;94914.38;;;-1.69;100.00
12475;BME280;6302;42.624;23.334;2022-12-20T03:45:06;94915.75;;;-1.77;100.00
12475;BME280;6302;42.624;23.334;2022-12-20T03:47:33;94916.69;;;-1.91;100.00
12475;BME280;6302;42.624;23.334;2022-12-20T03:50:01;94917.72;;;-1.92;100.00
12475;BME280;6302;42.624;23.334;2022-12-20T03:52:28;94911.78;;;-1.93;100.00
12475;BME280;6302;42.624;23.334;2022-12-20T03:54:55;94908.88;;;-1.91;100.00
12475;BME280;6302;42.624;23.334;2022-12-20T03:57:22;94885.06;;;-1.99;100.00
12475;BME280;6302;42.624;23.334;2022-12-20T03:59:49;94900.72;;;-2.09;100.00
12475;BME280;6302;42.624;23.334;2022-12-20T04:02:16;94901.84;;;-2.20;100.00
12475;BME280;6302;42.624;23.334;2022-12-20T04:04:42;94898.22;;;-2.19;100.00
12475;BME280;6302;42.624;23.334;2022-12-20T04:07:10;94881.66;;;-2.23;100.00
12475;BME280;6302;42.624;23.334;2022-12-20T04:09:37;94909.22;;;-1.98;100.00
12475;BME280;6302;42.624;23.334;2022-12-20T04:12:05;94910.53;;;-2.01;100.00
12475;BME280;6302;42.624;23.334;2022-12-20T04:14:32;94906.34;;;-1.97;100.00
12475;BME280;6302;42.624;23.334;2022-12-20T04:17:00;94875.78;;;-2.10;100.00
12475;BME280;6302;42.624;23.334;2022-12-20T04:19:27;94899.28;;;-1.91;100.00
12475;BME280;6302;42.624;23.334;2022-12-20T04:21:54;94902.91;;;-1.92;100.00
12475;BME280;6302;42.624;23.334;2022-12-20T04:24:24;94892.53;;;-1.92;100.00
12475;BME280;6302;42.624;23.334;2022-12-20T04:26:51;94892.53;;;-1.92;100.00
12475;BME280;6302;42.624;23.334;2022-12-20T04:29:18;94890.19;;;-1.93;100.00
12475;BME280;6302;42.624;23.334;2022-12-20T04:31:45;94884.22;;;-1.94;100.00
12475;BME280;6302;42.624;23.334;2022-12-20T04:34:12;94894.28;;;-1.87;100.00
12475;BME280;6302;42.624;23.334;2022-12-20T04:36:39;94856.88;;;-2.10;100.00
12475;BME280;6302;42.624;23.334;2022-12-20T04:39:06;94888.09;;;-1.91;100.00
12475;BME280;6302;42.624;23.334;2022-12-20T04:41:34;94897.72;;;-1.92;100.00
12475;BME280;6302;42.624;23.334;2022-12-20T04:44:01;94808.13;;;-2.47;100.00
12475;BME280;6302;42.624;23.334;2022-12-20T04:46:27;94894.41;;;-1.98;100.00
12475;BME280;6302;42.624;23.334;2022-12-20T04:48:54;94887.66;;;-1.99;100.00
12475;BME280;6302;42.624;23.334;2022-12-20T04:51:21;94887.88;;;-1.95;100.00
12475;BME280;6302;42.624;23.334;2022-12-20T04:53:48;94876.28;;;-2.03;100.00
12475;BME280;6302;42.624;23.334;2022-12-20T04:56:16;94896.00;;;-2.02;100.00
12475;BME280;6302;42.624;23.334;2022-12-20T04:58:44;94878.38;;;-2.10;100.00
12475;BME280;6302;42.624;23.334;2022-12-20T05:01:11;94881.47;;;-2.03;100.00
12475;BME280;6302;42.624;23.334;2022-12-20T05:03:39;94894.50;;;-2.08;100.00
12475;BME280;6302;42.624;23.334;2022-12-20T05:06:06;94889.31;;;-2.08;100.00
12475;BME280;6302;42.624;23.334;2022-12-20T05:08:33;94890.34;;;-2.09;100.00
12475;BME280;6302;42.624;23.334;2022-12-20T05:11:00;94851.06;;;-2.31;100.00
12475;BME280;6302;42.624;23.334;2022-12-20T05:13:27;94884.66;;;-2.11;100.00
12475;BME280;6302;42.624;23.334;2022-12-20T05:15:56;94888.28;;;-2.12;100.00
12475;BME280;6302;42.624;23.334;2022-12-20T05:18:24;94887.84;;;-2.19;100.00
12475;BME280;6302;42.624;23.334;2022-12-20T05:20:54;94889.69;;;-2.24;100.00
12475;BME280;6302;42.624;23.334;2022-12-20T05:23:34;94895.16;;;-2.26;100.00
12475;BME280;6302;42.624;23.334;2022-12-20T05:26:19;94889.69;;;-2.24;100.00
12475;BME280;6302;42.624;23.334;2022-12-20T05:28:46;94890.25;;;-2.27;100.00
12475;BME280;6302;42.624;23.334;2022-12-20T05:31:15;94887.91;;;-2.29;100.00
12475;BME280;6302;42.624;23.334;2022-12-20T05:33:41;94886.38;;;-2.30;100.00
12475;BME280;6302;42.624;23.334;2022-12-20T05:36:08;94893.41;;;-2.30;100.00
12475;BME280;6302;42.624;23.334;2022-12-20T05:38:35;94891.34;;;-2.33;100.00
12475;BME280;6302;42.624;23.334;2022-12-20T05:41:02;94896.53;;;-2.33;100.00
12475;BME280;6302;42.624;23.334;2022-12-20T05:43:31;94901.47;;;-2.37;100.00
12475;BME280;6302;42.624;23.334;2022-12-20T05:45:58;94891.69;;;-2.45;100.00
12475;BME280;6302;42.624;23.334;2022-12-20T05:48:26;94900.94;;;-2.34;100.00
12475;BME280;6302;42.624;23.334;2022-12-20T05:50:53;94904.59;;;-2.35;100.00
12475;BME280;6302;42.624;23.334;2022-12-20T05:53:19;94904.59;;;-2.35;100.00
12475;BME280;6302;42.624;23.334;2022-12-20T05:55:48;94902.03;;;-2.40;100.00
12475;BME280;6302;42.624;23.334;2022-12-20T05:58:15;94903.06;;;-2.41;100.00
12475;BME280;6302;42.624;23.334;2022-12-20T06:00:43;94902.56;;;-2.43;100.00
12475;BME280;6302;42.624;23.334;2022-12-20T06:03:12;94902.34;;;-2.46;100.00
12475;BME280;6302;42.624;23.334;2022-12-20T06:05:41;94901.59;;;-2.47;100.00
12475;BME280;6302;42.624;23.334;2022-12-20T06:08:09;94904.69;;;-2.45;100.00
12475;BME280;6302;42.624;23.334;2022-12-20T06:10:36;94899.47;;;-2.45;100.00
12475;BME280;6302;42.624;23.334;2022-12-20T06:13:03;94903.88;;;-2.45;100.00
12475;BME280;6302;42.624;23.334;2022-12-20T06:15:33;94861.75;;;-2.71;100.00
12475;BME280;6302;42.624;23.334;2022-12-20T06:18:00;94903.16;;;-2.51;100.00
12475;BME280;6302;42.624;23.334;2022-12-20T06:20:28;94903.06;;;-2.41;100.00
12475;BME280;6302;42.624;23.334;2022-12-20T06:22:57;94903.56;;;-2.39;100.00
12475;BME280;6302;42.624;23.334;2022-12-20T06:25:24;94910.31;;;-2.38;100.00
12475;BME280;6302;42.624;23.334;2022-12-20T06:27:51;94891.69;;;-2.45;100.00
12475;BME280;6302;42.624;23.334;2022-12-20T06:30:18;94904.03;;;-2.32;100.00
12475;BME280;6302;42.624;23.334;2022-12-20T06:32:45;94875.63;;;-2.47;100.00
12475;BME280;6302;42.624;23.334;2022-12-20T06:35:12;94901.41;;;-2.27;100.00
12475;BME280;6302;42.624;23.334;2022-12-20T06:37:40;94892.56;;;-2.26;100.00
12475;BME280;6302;42.624;23.334;2022-12-20T06:40:11;94894.03;;;-2.15;100.00
12475;BME280;6302;42.624;23.334;2022-12-20T06:42:38;94902.56;;;-2.09;100.00
12475;BME280;6302;42.624;23.334;2022-12-20T06:45:06;94898.63;;;-2.07;100.00
12475;BME280;6302;42.624;23.334;2022-12-20T06:47:35;94877.91;;;-2.12;100.00
12475;BME280;6302;42.624;23.334;2022-12-20T06:50:03;94870.88;;;-2.11;100.00
12475;BME280;6302;42.624;23.334;2022-12-20T06:52:30;94894.88;;;-1.90;100.00
12475;BME280;6302;42.624;23.334;2022-12-20T06:54:57;94880.53;;;-1.88;100.00
12475;BME280;6302;42.624;23.334;2022-12-20T06:57:25;94886.19;;;-1.81;100.00
12475;BME280;6302;42.624;23.334;2022-12-20T06:59:53;94888.69;;;-1.71;100.00
12475;BME280;6302;42.624;23.334;2022-12-20T07:02:19;94878.50;;;-1.67;100.00
12475;BME280;6302;42.624;23.334;2022-12-20T07:04:46;94881.53;;;-1.60;100.00
12475;BME280;6302;42.624;23.334;2022-12-20T07:07:13;94876.06;;;-1.59;100.00
12475;BME280;6302;42.624;23.334;2022-12-20T07:09:41;94841.66;;;-1.74;100.00
12475;BME280;6302;42.624;23.334;2022-12-20T07:12:09;94867.88;;;-1.47;100.00
12475;BME280;6302;42.624;23.334;2022-12-20T07:14:37;94843.56;;;-1.56;100.00
12475;BME280;6302;42.624;23.334;2022-12-20T07:17:04;94860.00;;;-1.42;100.00
12475;BME280;6302;42.624;23.334;2022-12-20T07:19:31;94870.00;;;-1.31;100.00
12475;BME280;6302;42.624;23.334;2022-12-20T07:21:58;94854.81;;;-1.42;100.00
12475;BME280;6302;42.624;23.334;2022-12-20T07:24:25;94864.97;;;-1.22;100.00
12475;BME280;6302;42.624;23.334;2022-12-20T07:26:53;94864.63;;;-1.15;100.00
12475;BME280;6302;42.624;23.334;2022-12-20T07:29:20;94864.84;;;-1.12;100.00
12475;BME280;6302;42.624;23.334;2022-12-20T07:31:48;94867.38;;;-1.07;100.00
12475;BME280;6302;42.624;23.334;2022-12-20T07:34:15;94868.91;;;-1.06;100.00
12475;BME280;6302;42.624;23.334;2022-12-20T07:36:42;94836.34;;;-1.22;100.00
12475;BME280;6302;42.624;23.334;2022-12-20T07:39:09;94859.16;;;-1.14;100.00
12475;BME280;6302;42.624;23.334;2022-12-20T07:41:36;94868.66;;;-1.04;100.00
12475;BME280;6302;42.624;23.334;2022-12-20T07:44:03;94872.28;;;-1.05;100.00
12475;BME280;6302;42.624;23.334;2022-12-20T07:46:30;94864.16;;;-0.99;100.00
12475;BME280;6302;42.624;23.334;2022-12-20T07:48:58;94872.88;;;-0.90;100.00
12475;BME280;6302;42.624;23.334;2022-12-20T07:51:27;94846.97;;;-1.00;100.00
12475;BME280;6302;42.624;23.334;2022-12-20T07:53:58;94870.25;;;-0.71;100.00
12475;BME280;6302;42.624;23.334;2022-12-20T07:56:26;94865.13;;;-0.76;100.00
12475;BME280;6302;42.624;23.334;2022-12-20T07:58:57;94867.44;;;-0.75;100.00
12475;BME280;6302;42.624;23.334;2022-12-20T08:01:27;94811.34;;;-0.99;100.00
12475;BME280;6302;42.624;23.334;2022-12-20T08:04:00;94851.75;;;-0.70;100.00
12475;BME280;6302;42.624;23.334;2022-12-20T08:06:28;94849.66;;;-0.68;100.00
12475;BME280;6302;42.624;23.334;2022-12-20T08:08:57;94851.25;;;-0.53;100.00
12475;BME280;6302;42.624;23.334;2022-12-20T08:11:26;94855.44;;;-0.38;100.00
12475;BME280;6302;42.624;23.334;2022-12-20T08:13:55;94850.31;;;-0.43;100.00
12475;BME280;6302;42.624;23.334;2022-12-20T08:16:22;94824.09;;;-0.66;100.00
12475;BME280;6302;42.624;23.334;2022-12-20T08:18:49;94853.38;;;-0.41;100.00
12475;BME280;6302;42.624;23.334;2022-12-20T08:21:17;94819.63;;;-0.46;100.00
12475;BME280;6302;42.624;23.334;2022-12-20T08:23:44;94848.81;;;-0.17;100.00
12475;BME280;6302;42.624;23.334;2022-12-20T08:26:10;94848.25;;;-0.14;100.00
12475;BME280;6302;42.624;23.334;2022-12-20T08:28:37;94844.94;;;-0.20;100.00
12475;BME280;6302;42.624;23.334;2022-12-20T08:31:06;94840.53;;;-0.19;100.00
12475;BME280;6302;42.624;23.334;2022-12-20T08:33:34;94851.94;;;-0.15;100.00
12475;BME280;6302;42.624;23.334;2022-12-20T08:36:05;94846.56;;;-0.05;100.00
12475;BME280;6302;42.624;23.334;2022-12-20T08:38:36;94851.56;;;0.05;100.00
12475;BME280;6302;42.624;23.334;2022-12-20T08:41:05;94842.91;;;0.10;100.00
12475;BME280;6302;42.624;23.334;2022-12-20T08:43:33;94842.47;;;0.03;100.00
12475;BME280;6302;42.624;23.334;2022-12-20T08:46:00;94825.97;;;-0.07;100.00
12475;BME280;6302;42.624;23.334;2022-12-20T08:48:27;94842.13;;;0.09;100.00
12475;BME280;6302;42.624;23.334;2022-12-20T08:50:55;94819.22;;;-0.08;100.00
12475;BME280;6302;42.624;23.334;2022-12-20T08:53:22;94834.66;;;0.03;100.00
12475;BME280;6302;42.624;23.334;2022-12-20T08:55:51;94829.75;;;0.01;100.00
12475;BME280;6302;42.624;23.334;2022-12-20T08:58:18;94800.97;;;-0.21;100.00
12475;BME280;6302;42.624;23.334;2022-12-20T09:00:46;94839.59;;;0.04;100.00
12475;BME280;6302;42.624;23.334;2022-12-20T09:03:12;94837.88;;;0.13;100.00
12475;BME280;6302;42.624;23.334;2022-12-20T09:05:43;94834.22;;;0.41;100.00
12475;BME280;6302;42.624;23.334;2022-12-20T09:08:11;94829.59;;;0.38;100.00
12475;BME280;6302;42.624;23.334;2022-12-20T09:10:38;94823.22;;;0.31;100.00
12475;BME280;6302;42.624;23.334;2022-12-20T09:13:06;94820.28;;;0.32;100.00
12475;BME280;6302;42.624;23.334;2022-12-20T09:15:33;94818.28;;;0.29;100.00
12475;BME280;6302;42.624;23.334;2022-12-20T09:18:01;94807.19;;;0.24;100.00
12475;BME280;6302;42.624;23.334;2022-12-20T09:20:28;94821.16;;;0.28;100.00
12475;BME280;6302;42.624;23.334;2022-12-20T09:22:55;94812.69;;;0.22;100.00
12475;BME280;6302;42.624;23.334;2022-12-20T09:25:23;94809.97;;;0.27;100.00
12475;BME280;6302;42.624;23.334;2022-12-20T09:27:50;94801.38;;;0.40;100.00
12475;BME280;6302;42.624;23.334;2022-12-20T09:30:18;94806.97;;;0.47;100.00
12475;BME280;6302;42.624;23.334;2022-12-20T09:32:45;94799.44;;;0.46;100.00
12475;BME280;6302;42.624;23.334;2022-12-20T09:35:12;94773.16;;;0.56;100.00
12475;BME280;6302;42.624;23.334;2022-12-20T09:37:39;94795.53;;;0.71;100.00
12475;BME280;6302;42.624;23.334;2022-12-20T09:40:15;94798.59;;;0.86;100.00
12475;BME280;6302;42.624;23.334;2022-12-20T09:42:42;94792.59;;;0.86;100.00
12475;BME280;6302;42.624;23.334;2022-12-20T09:45:26;94795.00;;;0.96;100.00
12475;BME280;6302;42.624;23.334;2022-12-20T09:47:53;94794.59;;;1.02;100.00
12475;BME280;6302;42.624;23.334;2022-12-20T09:50:27;94783.84;;;1.04;100.00
12475;BME280;6302;42.624;23.334;2022-12-20T09:53:08;94784.81;;;1.08;100.00
12475;BME280;6302;42.624;23.334;2022-12-20T09:55:44;94787.66;;;1.20;100.00
12475;BME280;6302;42.624;23.334;2022-12-20T09:58:26;94772.69;;;1.34;100.00
12475;BME280;6302;42.624;23.334;2022-12-20T10:00:56;94775.28;;;1.56;100.00
12475;BME280;6302;42.624;23.334;2022-12-20T10:03:28;94769.22;;;1.69;100.00
12475;BME280;6302;42.624;23.334;2022-12-20T10:05:57;94756.28;;;1.64;100.00
12475;BME280;6302;42.624;23.334;2022-12-20T10:08:42;94763.81;;;1.66;100.00
12475;BME280;6302;42.624;23.334;2022-12-20T10:11:25;94752.00;;;1.68;100.00
12475;BME280;6302;42.624;23.334;2022-12-20T10:14:01;94740.41;;;1.61;100.00
12475;BME280;6302;42.624;23.334;2022-12-20T10:16:40;94729.59;;;1.76;100.00
12475;BME280;6302;42.624;23.334;2022-12-20T10:19:29;94724.41;;;1.84;100.00
12475;BME280;6302;42.624;23.334;2022-12-20T10:22:06;94725.78;;;1.90;100.00
12475;BME280;6302;42.624;23.334;2022-12-20T10:24:37;94707.53;;;2.08;100.00
12475;BME280;6302;42.624;23.334;2022-12-20T10:27:11;94703.41;;;2.15;100.00
12475;BME280;6302;42.624;23.334;2022-12-20T10:29:40;94709.16;;;2.34;100.00
12475;BME280;6302;42.624;23.334;2022-12-20T10:32:13;94695.13;;;2.30;100.00
12475;BME280;6302;42.624;23.334;2022-12-20T10:34:44;94686.38;;;2.35;100.00
12475;BME280;6302;42.624;23.334;2022-12-20T10:37:13;94686.09;;;2.45;100.00
12475;BME280;6302;42.624;23.334;2022-12-20T10:39:42;94680.53;;;2.38;100.00
12475;BME280;6302;42.624;23.334;2022-12-20T10:42:35;94664.34;;;2.19;100.00
12475;BME280;6302;42.624;23.334;2022-12-20T10:45:05;94664.69;;;2.34;100.00
12475;BME280;6302;42.624;23.334;2022-12-20T10:47:50;94648.84;;;2.31;100.00
12475;BME280;6302;42.624;23.334;2022-12-20T10:50:19;94638.53;;;2.43;100.00
12475;BME280;6302;42.624;23.334;2022-12-20T10:53:03;94660.84;;;2.66;100.00
12475;BME280;6302;42.624;23.334;2022-12-20T10:55:39;94650.06;;;2.68;100.00
12475;BME280;6302;42.624;23.334;2022-12-20T10:58:14;94648.53;;;2.75;100.00
12475;BME280;6302;42.624;23.334;2022-12-20T11:00:42;94644.97;;;2.97;100.00
12475;BME280;6302;42.624;23.334;2022-12-20T11:03:14;94649.91;;;2.98;98.32
12475;BME280;6302;42.624;23.334;2022-12-20T11:05:53;94645.28;;;2.87;94.64
12475;BME280;6302;42.624;23.334;2022-12-20T11:08:21;94644.69;;;2.73;96.08
12475;BME280;6302;42.624;23.334;2022-12-20T11:11:09;94603.72;;;2.59;94.48
12475;BME280;6302;42.624;23.334;2022-12-20T11:13:37;94628.94;;;2.90;94.55
12475;BME280;6302;42.624;23.334;2022-12-20T11:16:04;94632.81;;;2.92;94.60
12475;BME280;6302;42.624;23.334;2022-12-20T11:18:42;94633.09;;;2.99;94.29
12475;BME280;6302;42.624;23.334;2022-12-20T11:21:17;94631.41;;;3.03;93.03
12475;BME280;6302;42.624;23.334;2022-12-20T11:23:55;94609.81;;;3.06;92.68
12475;BME280;6302;42.624;23.334;2022-12-20T11:26:34;94619.91;;;3.34;90.93
12475;BME280;6302;42.624;23.334;2022-12-20T11:29:17;94607.78;;;3.20;85.53
12475;BME280;6302;42.624;23.334;2022-12-20T11:31:51;94609.31;;;3.21;86.28
12475;BME280;6302;42.624;23.334;2022-12-20T11:34:31;94610.25;;;3.25;84.62
12475;BME280;6302;42.624;23.334;2022-12-20T11:37:16;94532.75;;;2.78;83.52
12475;BME280;6302;42.624;23.334;2022-12-20T11:42:47;94594.19;;;3.36;79.61
12475;BME280;6302;42.624;23.334;2022-12-20T11:45:22;94605.72;;;3.43;76.89
12475;BME280;6302;42.624;23.334;2022-12-20T11:48:29;94588.38;;;3.51;73.88
12475;BME280;6302;42.624;23.334;2022-12-20T11:51:05;94592.81;;;3.59;71.96
12475;BME280;6302;42.624;23.334;2022-12-20T11:53:37;94566.69;;;3.42;70.74
12475;BME280;6302;42.624;23.334;2022-12-20T11:56:09;94586.16;;;3.70;69.24
12475;BME280;6302;42.624;23.334;2022-12-20T11:58:50;94588.06;;;3.90;69.80
12475;BME280;6302;42.624;23.334;2022-12-20T12:01:23;94583.31;;;4.04;68.82
12475;BME280;6302;42.624;23.334;2022-12-20T12:04:00;94582.75;;;4.19;68.41
12475;BME280;6302;42.624;23.334;2022-12-20T12:06:33;94582.31;;;4.17;67.21
12475;BME280;6302;42.624;23.334;2022-12-20T12:09:10;94580.88;;;4.20;68.07
12475;BME280;6302;42.624;23.334;2022-12-20T12:11:43;94582.25;;;4.26;65.66
12475;BME280;6302;42.624;23.334;2022-12-20T12:14:24;94568.91;;;4.10;64.43
12475;BME280;6302;42.624;23.334;2022-12-20T12:16:57;94576.97;;;4.05;64.62
12475;BME280;6302;42.624;23.334;2022-12-20T12:19:32;94569.25;;;4.09;64.58
12475;BME280;6302;42.624;23.334;2022-12-20T12:22:05;94573.28;;;4.06;63.86
12475;BME280;6302;42.624;23.334;2022-12-20T12:24:38;94567.28;;;3.76;65.11
12475;BME280;6302;42.624;23.334;2022-12-20T12:27:12;94572.88;;;3.95;65.29
12475;BME280;6302;42.624;23.334;2022-12-20T12:29:40;94568.81;;;4.07;65.35
12475;BME280;6302;42.624;23.334;2022-12-20T12:32:13;94560.34;;;4.01;64.32
12475;BME280;6302;42.624;23.334;2022-12-20T12:34:53;94575.91;;;4.06;65.32
12475;BME280;6302;42.624;23.334;2022-12-20T12:37:47;94568.72;;;4.15;62.43
12475;BME280;6302;42.624;23.334;2022-12-20T12:43:49;94568.28;;;4.13;61.47
12475;BME280;6302;42.624;23.334;2022-12-20T12:46:19;94568.72;;;4.15;61.62
12475;BME280;6302;42.624;23.334;2022-12-20T12:48:53;94551.66;;;4.09;62.31
12475;BME280;6302;42.624;23.334;2022-12-20T12:51:25;94563.38;;;4.12;61.27
12475;BME280;6302;42.624;23.334;2022-12-20T12:54:03;94562.16;;;4.09;62.29
12475;BME280;6302;42.624;23.334;2022-12-20T12:56:41;94565.66;;;4.13;60.15
12475;BME280;6302;42.624;23.334;2022-12-20T12:59:39;94562.81;;;3.97;60.37
12475;BME280;6302;42.624;23.334;2022-12-20T13:02:50;94559.28;;;4.02;61.69
12475;BME280;6302;42.624;23.334;2022-12-20T13:05:33;94553.19;;;4.10;62.34
12475;BME280;6302;42.624;23.334;2022-12-20T13:08:00;94532.66;;;4.12;62.30
12475;BME280;6302;42.624;23.334;2022-12-20T13:11:01;94548.25;;;4.29;61.39
12475;BME280;6302;42.624;23.334;2022-12-20T13:13:28;94532.63;;;4.33;61.90
12475;BME280;6302;42.624;23.334;2022-12-20T13:16:12;94530.81;;;4.45;60.95
12475;BME280;6302;42.624;23.334;2022-12-20T13:19:11;94528.97;;;4.46;59.93